Country
Station

 

Weather  for  Konya  -  Turkey    Turkey

  
14 °C (57 °F)
    
 
 

Current METAR for Konya is :

LTAN 021140Z 25003KT 170V320 9999 -SHRA FEW027CB BKN035 14/08 Q1008 TEMPO TL1300 29015KT -TSRA

 

This is a report for Konya - Turkey.
 
The report was made 9 minutes ago, at 11:40 UTC .
The wind was blowing at a speed of 1.5 meters per second (3.5 miles per hour) from west/southwest (250°), varying between south (170°) and northwest (320°).
 
The temperature was 14 °C (57 °F), with a dew-point at 8 °C (46 °F).
The atmospheric pressure was 1008 hPa (29.77 inHg).
The relative humidity was 67.1%.
 
There were a few cumulonimbus clouds at a height of 823 meters (2700 feet) and broken clouds at a height of 1067 meters (3500 feet).
 
The overall visibility was greater than 10 kilometers (6.2 miles).
 
Currently showers of light rain.

 
 
 
 

Country :   A   B   C   D   E   F   G   H   I   J   K   L   M   N   O   P   Q   R   S   T   U   V   W   Y   Z

 

Site Info  |  Disclaimer  |  Credits  |  Privacy
Contact us  |  Add to favorites
© 2013-2020 METARs - All rights reserved